Time;durP1;ratioP1;P1;durP2;ratioP2;P2;SDS_P1;SDS_P2;PMS_P1;PMS_P2;Temp;Humidity;BMP_temperature;BMP_pressure;BME280_temperature;BME280_humidity;BME280_pressure;Samples;Min_cycle;Max_cycle;Signal;HPM_P1;HPM_P2
2021/08/11 00:00:29;;;;;;;3.42;1.92;;;;;;;;;;4938596;29;20476;-92
2021/08/11 00:02:56;;;;;;;11.85;2.60;;;;;;;;;;4938495;29;20030;-88
2021/08/11 00:05:22;;;;;;;5.82;2.47;;;;;;;;;;4939212;29;20051;-87
2021/08/11 00:07:49;;;;;;;6.28;3.00;;;;;;;;;;4938695;29;20028;-87
2021/08/11 00:10:15;;;;;;;6.60;2.65;;;;;;;;;;4939443;29;20039;-87
2021/08/11 00:12:42;;;;;;;6.78;2.40;;;;;;;;;;4938457;29;20024;-88
2021/08/11 00:15:08;;;;;;;4.95;2.70;;;;;;;;;;4938256;29;20071;-87
2021/08/11 00:17:35;;;;;;;6.30;2.70;;;;;;;;;;4938900;29;20027;-87
2021/08/11 00:20:01;;;;;;;4.68;2.65;;;;;;;;;;4939011;29;20070;-88
2021/08/11 00:22:28;;;;;;;6.40;2.65;;;;;;;;;;4938500;29;20023;-87
2021/08/11 00:24:55;;;;;;;4.47;2.30;;;;;;;;;;4938140;29;20054;-86
2021/08/11 00:27:21;;;;;;;6.40;2.58;;;;;;;;;;4940033;29;20032;-87
2021/08/11 00:29:47;;;;;;;4.70;2.13;;;;;;;;;;4938252;29;20126;-86
2021/08/11 00:32:13;;;;;;;7.28;2.78;;;;;;;;;;4938066;29;20027;-91
2021/08/11 00:34:41;;;;;;;4.90;2.33;;;;;;;;;;4940243;29;20405;-87
2021/08/11 00:37:07;;;;;;;6.25;2.80;;;;;;;;;;4940735;29;20087;-90
2021/08/11 00:39:33;;;;;;;6.97;2.60;;;;;;;;;;4937811;29;20028;-90
2021/08/11 00:41:59;;;;;;;6.38;2.55;;;;;;;;;;4938244;29;20027;-90
2021/08/11 00:44:26;;;;;;;7.78;2.70;;;;;;;;;;4938887;29;20444;-87
2021/08/11 00:46:52;;;;;;;8.18;2.45;;;;;;;;;;4938776;29;20044;-88
2021/08/11 00:49:19;;;;;;;5.97;2.95;;;;;;;;;;4937891;29;20047;-91
2021/08/11 00:51:45;;;;;;;5.18;2.65;;;;;;;;;;4937485;29;20056;-87
2021/08/11 00:54:12;;;;;;;4.20;2.50;;;;;;;;;;4936465;29;20473;-88
2021/08/11 00:56:41;;;;;;;5.53;2.78;;;;;;;;;;4937040;29;20035;-88
2021/08/11 00:59:08;;;;;;;8.82;2.63;;;;;;;;;;4938259;29;20038;-91
2021/08/11 01:01:37;;;;;;;7.25;2.63;;;;;;;;;;4936864;29;20035;-87
2021/08/11 01:04:03;;;;;;;10.75;2.95;;;;;;;;;;4936439;29;20389;-90
2021/08/11 01:06:30;;;;;;;4.90;2.60;;;;;;;;;;4935789;29;20032;-87
2021/08/11 01:08:57;;;;;;;5.13;2.70;;;;;;;;;;4937330;29;20386;-87
2021/08/11 01:11:26;;;;;;;4.68;2.50;;;;;;;;;;4937080;29;20031;-91
2021/08/11 01:13:52;;;;;;;6.28;3.35;;;;;;;;;;4937088;29;20043;-87
2021/08/11 01:16:19;;;;;;;5.82;2.88;;;;;;;;;;4936792;29;20046;-90
2021/08/11 01:18:45;;;;;;;5.28;2.67;;;;;;;;;;4936159;29;20028;-87
2021/08/11 01:21:32;;;;;;;5.40;2.72;;;;;;;;;;4936839;29;20038;-86
2021/08/11 01:24:08;;;;;;;8.90;2.90;;;;;;;;;;4937425;29;20039;-87
2021/08/11 01:26:52;;;;;;;8.68;2.63;;;;;;;;;;4936533;29;20034;-87
2021/08/11 01:29:22;;;;;;;4.88;2.40;;;;;;;;;;4936253;29;20171;-91
2021/08/11 01:31:58;;;;;;;5.00;3.13;;;;;;;;;;4936093;29;20532;-87
2021/08/11 01:34:34;;;;;;;6.38;2.63;;;;;;;;;;4937133;29;20369;-87
2021/08/11 01:37:02;;;;;;;4.75;2.95;;;;;;;;;;4936283;29;20155;-86
2021/08/11 01:39:28;;;;;;;6.32;2.40;;;;;;;;;;4936169;29;20116;-88
2021/08/11 01:41:58;;;;;;;5.93;3.05;;;;;;;;;;4935864;29;20473;-86
2021/08/11 01:44:27;;;;;;;10.85;3.05;;;;;;;;;;4936525;29;20039;-92
2021/08/11 01:46:54;;;;;;;4.00;2.42;;;;;;;;;;4936027;29;20032;-88
2021/08/11 01:49:22;;;;;;;5.20;2.65;;;;;;;;;;4936085;29;20389;-88
2021/08/11 01:51:48;;;;;;;6.80;2.88;;;;;;;;;;4891592;29;1309963;-88
2021/08/11 01:54:15;;;;;;;6.70;2.92;;;;;;;;;;4936540;29;20702;-88
2021/08/11 01:56:42;;;;;;;5.72;2.60;;;;;;;;;;4937820;29;20063;-88
2021/08/11 01:59:09;;;;;;;4.78;2.58;;;;;;;;;;4938882;29;20028;-88
2021/08/11 02:01:40;;;;;;;7.03;2.63;;;;;;;;;;4936957;29;20038;-91
2021/08/11 02:04:10;;;;;;;7.78;2.95;;;;;;;;;;4936511;29;20028;-89
2021/08/11 02:06:36;;;;;;;4.45;2.60;;;;;;;;;;4936880;29;20034;-88
2021/08/11 02:09:03;;;;;;;6.88;2.90;;;;;;;;;;4936451;29;20028;-91
2021/08/11 02:11:30;;;;;;;15.40;3.20;;;;;;;;;;4936882;29;20046;-91
2021/08/11 02:13:57;;;;;;;5.10;2.70;;;;;;;;;;4936776;29;20086;-91
2021/08/11 02:16:23;;;;;;;5.65;2.90;;;;;;;;;;4936343;29;20043;-88
2021/08/11 02:18:49;;;;;;;4.45;2.85;;;;;;;;;;4936119;29;20032;-90
2021/08/11 02:21:15;;;;;;;4.25;2.50;;;;;;;;;;4936232;29;20031;-88
2021/08/11 02:23:42;;;;;;;5.55;2.60;;;;;;;;;;4936584;29;20040;-91
2021/08/11 02:26:24;;;;;;;5.93;2.60;;;;;;;;;;4937368;29;20075;-88
2021/08/11 02:29:00;;;;;;;4.88;2.65;;;;;;;;;;4939844;29;20038;-91
2021/08/11 02:31:44;;;;;;;4.88;2.20;;;;;;;;;;4936829;29;20031;-88
2021/08/11 02:34:16;;;;;;;6.88;2.30;;;;;;;;;;4936310;29;20062;-90
2021/08/11 02:36:50;;;;;;;4.32;2.33;;;;;;;;;;4937517;29;20042;-88
2021/08/11 02:39:20;;;;;;;4.75;2.58;;;;;;;;;;4936143;29;20028;-89
2021/08/11 02:41:51;;;;;;;4.72;2.35;;;;;;;;;;4935952;29;20031;-91
2021/08/11 02:44:21;;;;;;;3.55;1.88;;;;;;;;;;4935721;29;20101;-88
2021/08/11 02:46:49;;;;;;;3.20;1.67;;;;;;;;;;4936301;29;20166;-88
2021/08/11 02:49:20;;;;;;;3.72;1.27;;;;;;;;;;4935973;29;20043;-93
2021/08/11 02:51:47;;;;;;;2.97;1.25;;;;;;;;;;4935864;29;20044;-92
2021/08/11 02:54:15;;;;;;;3.97;1.25;;;;;;;;;;4936186;29;20071;-89
2021/08/11 02:56:45;;;;;;;2.85;1.38;;;;;;;;;;4936571;29;20381;-92
2021/08/11 02:59:15;;;;;;;5.50;1.30;;;;;;;;;;4935988;29;20028;-88
2021/08/11 03:01:41;;;;;;;3.25;1.13;;;;;;;;;;4936154;29;20024;-92
2021/08/11 03:04:07;;;;;;;3.03;1.30;;;;;;;;;;4936058;29;20030;-93
2021/08/11 03:06:34;;;;;;;2.22;0.90;;;;;;;;;;4936015;29;20062;-90
2021/08/11 03:09:01;;;;;;;2.63;1.15;;;;;;;;;;4936016;29;20032;-88
2021/08/11 03:11:28;;;;;;;2.20;1.02;;;;;;;;;;4935723;29;20059;-91
2021/08/11 03:13:55;;;;;;;2.08;1.20;;;;;;;;;;4935895;29;20031;-93
2021/08/11 03:16:21;;;;;;;3.33;1.05;;;;;;;;;;4936831;29;20039;-92
2021/08/11 03:18:50;;;;;;;2.47;1.10;;;;;;;;;;4936107;29;20030;-89
2021/08/11 03:21:17;;;;;;;2.47;1.10;;;;;;;;;;4935861;29;20031;-91
2021/08/11 03:23:43;;;;;;;2.70;1.13;;;;;;;;;;4935854;29;20066;-89
2021/08/11 03:26:10;;;;;;;1.75;0.70;;;;;;;;;;4935817;29;20061;-89
2021/08/11 03:28:36;;;;;;;2.42;0.60;;;;;;;;;;4935500;29;20035;-93
2021/08/11 03:31:02;;;;;;;1.58;0.73;;;;;;;;;;4939352;29;20031;-89
2021/08/11 03:33:29;;;;;;;1.85;0.60;;;;;;;;;;4939724;29;20036;-94
2021/08/11 03:35:55;;;;;;;4.90;0.90;;;;;;;;;;4939778;29;20039;-93
2021/08/11 03:38:21;;;;;;;2.05;0.75;;;;;;;;;;4939882;29;20031;-89
2021/08/11 03:40:47;;;;;;;2.30;0.60;;;;;;;;;;4939906;29;20099;-90
2021/08/11 03:43:14;;;;;;;1.00;0.43;;;;;;;;;;4940743;29;20023;-88
2021/08/11 03:45:42;;;;;;;0.93;0.40;;;;;;;;;;4939699;29;20035;-93
2021/08/11 03:48:08;;;;;;;1.52;0.50;;;;;;;;;;4940465;29;20028;-93
2021/08/11 03:50:34;;;;;;;1.60;0.55;;;;;;;;;;4939412;29;20035;-92
2021/08/11 03:53:00;;;;;;;5.50;0.60;;;;;;;;;;4939104;29;20050;-89
2021/08/11 03:55:32;;;;;;;1.80;0.70;;;;;;;;;;4939257;29;20036;-94
2021/08/11 03:57:59;;;;;;;1.73;0.70;;;;;;;;;;4939622;29;20030;-92
2021/08/11 04:00:26;;;;;;;1.30;0.60;;;;;;;;;;4939397;29;20031;-92
2021/08/11 04:02:52;;;;;;;1.45;0.50;;;;;;;;;;4938981;29;20465;-93
2021/08/11 04:05:18;;;;;;;1.83;0.60;;;;;;;;;;4938935;29;20107;-92
2021/08/11 04:07:44;;;;;;;1.60;0.65;;;;;;;;;;4939209;29;20023;-93
2021/08/11 04:10:11;;;;;;;1.45;0.60;;;;;;;;;;4939171;29;20072;-93
2021/08/11 04:12:37;;;;;;;1.88;0.60;;;;;;;;;;4939966;29;20019;-88
2021/08/11 04:15:05;;;;;;;2.10;0.63;;;;;;;;;;4939170;29;20047;-92
2021/08/11 04:17:31;;;;;;;3.28;0.43;;;;;;;;;;4938840;29;20027;-92
2021/08/11 04:19:57;;;;;;;1.05;0.50;;;;;;;;;;4938933;29;20027;-91
2021/08/11 04:22:23;;;;;;;1.00;0.50;;;;;;;;;;4939978;29;20032;-93
2021/08/11 04:24:50;;;;;;;2.13;0.73;;;;;;;;;;4939692;29;20028;-88
2021/08/11 04:27:16;;;;;;;3.17;0.85;;;;;;;;;;4938095;29;20430;-92
2021/08/11 04:29:42;;;;;;;1.10;0.40;;;;;;;;;;4938593;29;20095;-91
2021/08/11 04:32:08;;;;;;;1.33;0.43;;;;;;;;;;4938518;29;20434;-94
2021/08/11 04:34:34;;;;;;;1.63;0.52;;;;;;;;;;4938660;29;20079;-92
2021/08/11 04:37:00;;;;;;;5.90;0.70;;;;;;;;;;4938820;29;20035;-91
2021/08/11 04:39:27;;;;;;;1.38;0.40;;;;;;;;;;4938398;29;20034;-88
2021/08/11 04:41:53;;;;;;;1.35;0.47;;;;;;;;;;4938181;29;20465;-86
2021/08/11 04:44:19;;;;;;;4.72;0.60;;;;;;;;;;4938358;29;20031;-89
2021/08/11 04:46:45;;;;;;;3.20;0.40;;;;;;;;;;4923686;29;20058;-85
2021/08/11 04:49:11;;;;;;;1.13;0.45;;;;;;;;;;4939165;29;20095;-91
2021/08/11 04:51:38;;;;;;;2.00;0.80;;;;;;;;;;4939174;29;20055;-86
2021/08/11 04:54:04;;;;;;;1.77;0.32;;;;;;;;;;4938309;29;20035;-89
2021/08/11 04:56:30;;;;;;;1.75;0.65;;;;;;;;;;4938036;29;20497;-90
2021/08/11 04:58:56;;;;;;;2.65;0.60;;;;;;;;;;4938339;29;20028;-90
2021/08/11 05:01:22;;;;;;;1.10;0.50;;;;;;;;;;4938029;29;20065;-91
2021/08/11 05:03:48;;;;;;;1.60;0.50;;;;;;;;;;4939082;29;20035;-90
2021/08/11 05:06:14;;;;;;;1.92;0.52;;;;;;;;;;4937793;29;20028;-90
2021/08/11 05:08:41;;;;;;;2.17;0.70;;;;;;;;;;4938024;29;20545;-86
2021/08/11 05:11:10;;;;;;;1.33;0.60;;;;;;;;;;4938409;29;20034;-87
2021/08/11 05:13:36;;;;;;;1.77;0.90;;;;;;;;;;4937790;29;20122;-89
2021/08/11 05:16:02;;;;;;;2.33;0.70;;;;;;;;;;4938509;29;20462;-86
2021/08/11 05:18:29;;;;;;;2.00;0.90;;;;;;;;;;4937592;29;20034;-86
2021/08/11 05:20:55;;;;;;;1.70;0.75;;;;;;;;;;4938342;29;20028;-85
2021/08/11 05:23:21;;;;;;;4.13;0.80;;;;;;;;;;4938753;29;20038;-86
2021/08/11 05:25:48;;;;;;;2.45;0.80;;;;;;;;;;4937055;29;20058;-87
2021/08/11 05:28:15;;;;;;;2.20;0.70;;;;;;;;;;4938416;29;20136;-87
2021/08/11 05:30:42;;;;;;;10.38;1.08;;;;;;;;;;4936871;29;20062;-87
2021/08/11 05:33:08;;;;;;;1.52;0.60;;;;;;;;;;4937307;29;20028;-85
2021/08/11 05:35:36;;;;;;;3.10;0.70;;;;;;;;;;4937915;29;20040;-89
2021/08/11 05:38:05;;;;;;;1.92;0.85;;;;;;;;;;4938416;29;20047;-87
2021/08/11 05:40:31;;;;;;;1.67;0.60;;;;;;;;;;4936659;29;20114;-88
2021/08/11 05:42:57;;;;;;;1.40;0.60;;;;;;;;;;4936632;29;20230;-85
2021/08/11 05:45:23;;;;;;;2.53;0.80;;;;;;;;;;4936728;29;20031;-87
2021/08/11 05:47:50;;;;;;;1.55;0.70;;;;;;;;;;4936473;29;20039;-87
2021/08/11 05:50:16;;;;;;;1.33;0.60;;;;;;;;;;4936625;29;20036;-87
2021/08/11 05:52:42;;;;;;;2.08;0.65;;;;;;;;;;4935505;29;20096;-87
2021/08/11 05:55:08;;;;;;;2.53;0.70;;;;;;;;;;4936619;29;20181;-88
2021/08/11 05:57:38;;;;;;;1.35;0.57;;;;;;;;;;4936531;29;20039;-87
2021/08/11 06:00:06;;;;;;;2.17;0.80;;;;;;;;;;4936360;29;20027;-88
2021/08/11 06:02:32;;;;;;;2.50;1.02;;;;;;;;;;4936428;29;20038;-87
2021/08/11 06:04:58;;;;;;;1.85;0.80;;;;;;;;;;4936487;29;20024;-84
2021/08/11 06:07:25;;;;;;;5.78;0.52;;;;;;;;;;4937483;29;20107;-84
2021/08/11 06:09:51;;;;;;;1.52;0.55;;;;;;;;;;4936522;29;20080;-87
2021/08/11 06:12:17;;;;;;;1.77;0.65;;;;;;;;;;4936120;29;20035;-84
2021/08/11 06:14:43;;;;;;;2.85;0.95;;;;;;;;;;4936213;29;20118;-86
2021/08/11 06:17:10;;;;;;;1.63;0.73;;;;;;;;;;4936168;29;20534;-85
2021/08/11 06:19:36;;;;;;;1.65;0.70;;;;;;;;;;4938626;29;20031;-87
2021/08/11 06:22:02;;;;;;;2.85;0.98;;;;;;;;;;4936118;29;20039;-85
2021/08/11 06:24:28;;;;;;;2.28;0.60;;;;;;;;;;4935861;29;20028;-87
2021/08/11 06:26:56;;;;;;;4.40;0.70;;;;;;;;;;4935687;29;20027;-86
2021/08/11 06:29:22;;;;;;;1.90;0.90;;;;;;;;;;4937176;29;20031;-87
2021/08/11 06:31:48;;;;;;;1.63;0.70;;;;;;;;;;4935830;29;20438;-88
2021/08/11 06:34:15;;;;;;;1.80;0.80;;;;;;;;;;4936764;29;20042;-88
2021/08/11 06:36:41;;;;;;;1.83;0.90;;;;;;;;;;4935677;29;20035;-89
2021/08/11 06:39:08;;;;;;;1.83;0.82;;;;;;;;;;4935488;29;20449;-86
2021/08/11 06:41:34;;;;;;;3.45;1.08;;;;;;;;;;4936767;29;20027;-85
2021/08/11 06:44:00;;;;;;;1.95;0.80;;;;;;;;;;4935360;29;20027;-85
2021/08/11 06:46:27;;;;;;;2.72;1.05;;;;;;;;;;4935451;29;20492;-85
2021/08/11 06:48:54;;;;;;;2.00;1.08;;;;;;;;;;4935458;29;20075;-88
2021/08/11 06:51:20;;;;;;;2.53;1.08;;;;;;;;;;4936712;29;20039;-88
2021/08/11 06:53:46;;;;;;;2.05;1.00;;;;;;;;;;4935344;29;20036;-87
2021/08/11 06:56:12;;;;;;;3.70;0.98;;;;;;;;;;4935182;29;20035;-88
2021/08/11 06:58:38;;;;;;;2.58;1.00;;;;;;;;;;4935472;29;20036;-88
2021/08/11 07:01:05;;;;;;;2.40;1.00;;;;;;;;;;4935229;29;20370;-88
2021/08/11 07:03:31;;;;;;;2.35;1.00;;;;;;;;;;4935126;29;20024;-88
2021/08/11 07:05:57;;;;;;;4.35;1.20;;;;;;;;;;4935146;29;20027;-88
2021/08/11 07:08:23;;;;;;;2.65;1.05;;;;;;;;;;4936592;29;20024;-87
2021/08/11 07:10:50;;;;;;;2.72;1.48;;;;;;;;;;4936848;29;20024;-85
2021/08/11 07:13:16;;;;;;;3.08;0.95;;;;;;;;;;4934977;29;20028;-85
2021/08/11 07:15:42;;;;;;;3.00;1.10;;;;;;;;;;4934866;29;20237;-85
2021/08/11 07:18:09;;;;;;;3.42;1.00;;;;;;;;;;4935076;29;20020;-90
2021/08/11 07:20:35;;;;;;;3.30;1.30;;;;;;;;;;4936320;29;20031;-86
2021/08/11 07:23:01;;;;;;;5.00;1.23;;;;;;;;;;4936394;29;20024;-87
2021/08/11 07:25:28;;;;;;;5.88;1.50;;;;;;;;;;4935035;29;20032;-88
2021/08/11 07:27:54;;;;;;;4.82;1.40;;;;;;;;;;4935021;29;20020;-86
2021/08/11 07:30:21;;;;;;;4.15;1.77;;;;;;;;;;4936870;29;20036;-85
2021/08/11 07:32:47;;;;;;;4.10;1.25;;;;;;;;;;4935177;29;20036;-88
2021/08/11 07:35:14;;;;;;;3.97;1.58;;;;;;;;;;4935000;29;20039;-89
2021/08/11 07:37:46;;;;;;;6.15;1.30;;;;;;;;;;4935004;29;20063;-86
2021/08/11 07:40:13;;;;;;;;;;;;;;;;;;4935350;29;20054;-87
2021/08/11 07:42:40;;;;;;;3.03;1.08;;;;;;;;;;4934954;29;19914;-88
2021/08/11 07:45:07;;;;;;;4.55;1.40;;;;;;;;;;4936135;29;20028;-86
2021/08/11 07:47:33;;;;;;;22.23;2.05;;;;;;;;;;4936195;29;20032;-88
2021/08/11 07:50:00;;;;;;;2.53;1.45;;;;;;;;;;4934779;29;20555;-87
2021/08/11 07:52:26;;;;;;;2.95;1.20;;;;;;;;;;4934591;29;20489;-87
2021/08/11 07:54:52;;;;;;;3.60;1.33;;;;;;;;;;4934948;29;20106;-87
2021/08/11 07:57:19;;;;;;;3.25;1.48;;;;;;;;;;4935973;29;20508;-87
2021/08/11 07:59:45;;;;;;;3.13;1.20;;;;;;;;;;4934623;29;20024;-86
2021/08/11 08:02:13;;;;;;;2.92;1.38;;;;;;;;;;4934733;29;20035;-87
2021/08/11 08:04:43;;;;;;;3.20;1.50;;;;;;;;;;4934784;29;20039;-87
2021/08/11 08:07:09;;;;;;;3.17;1.48;;;;;;;;;;4934728;29;20031;-87
2021/08/11 08:09:36;;;;;;;3.22;1.60;;;;;;;;;;4935026;29;20027;-89
2021/08/11 08:12:02;;;;;;;2.58;1.40;;;;;;;;;;4939591;29;20032;-91
2021/08/11 08:14:28;;;;;;;3.33;1.33;;;;;;;;;;4936717;29;20030;-88
2021/08/11 08:16:55;;;;;;;3.05;1.55;;;;;;;;;;4937664;29;20028;-88
2021/08/11 08:19:21;;;;;;;2.78;1.58;;;;;;;;;;4938219;29;20032;-88
2021/08/11 08:21:47;;;;;;;3.72;1.48;;;;;;;;;;4939561;29;20030;-87
2021/08/11 08:24:14;;;;;;;2.72;1.25;;;;;;;;;;4938259;29;20032;-89
2021/08/11 08:26:42;;;;;;;2.03;1.15;;;;;;;;;;4938088;29;20481;-88
2021/08/11 08:29:08;;;;;;;3.38;1.35;;;;;;;;;;4937890;29;20040;-88
2021/08/11 08:31:35;;;;;;;2.55;1.35;;;;;;;;;;4939235;29;20035;-87
2021/08/11 08:34:01;;;;;;;5.18;1.63;;;;;;;;;;4937828;29;20490;-90
2021/08/11 08:36:27;;;;;;;3.47;1.50;;;;;;;;;;4937715;29;20039;-89
2021/08/11 08:38:54;;;;;;;2.85;1.40;;;;;;;;;;4938955;29;20031;-88
2021/08/11 08:41:20;;;;;;;2.10;1.13;;;;;;;;;;4939130;29;20028;-88
2021/08/11 08:43:46;;;;;;;4.55;1.63;;;;;;;;;;4937622;29;20028;-88
2021/08/11 08:46:15;;;;;;;6.40;1.30;;;;;;;;;;4937536;29;20055;-87
2021/08/11 08:48:42;;;;;;;2.75;1.50;;;;;;;;;;4937616;29;20059;-88
2021/08/11 08:51:12;;;;;;;2.35;1.48;;;;;;;;;;4937479;29;20499;-89
2021/08/11 08:53:44;;;;;;;2.97;1.65;;;;;;;;;;4937531;29;20031;-86
2021/08/11 08:56:10;;;;;;;3.60;1.83;;;;;;;;;;4939094;29;20405;-86
2021/08/11 08:58:42;;;;;;;3.10;1.45;;;;;;;;;;4937343;29;20039;-86
2021/08/11 09:01:08;;;;;;;2.45;1.75;;;;;;;;;;4937353;29;20441;-87
2021/08/11 09:03:35;;;;;;;3.28;1.60;;;;;;;;;;4937261;29;20091;-88
2021/08/11 09:06:01;;;;;;;2.97;1.60;;;;;;;;;;4938948;29;20032;-86
2021/08/11 09:08:28;;;;;;;2.70;1.50;;;;;;;;;;4937505;29;20030;-87
2021/08/11 09:10:54;;;;;;;3.90;1.30;;;;;;;;;;4937305;29;20023;-87
2021/08/11 09:13:21;;;;;;;3.75;1.70;;;;;;;;;;4937220;29;20109;-88
2021/08/11 09:15:49;;;;;;;3.53;1.60;;;;;;;;;;4937011;29;20039;-85
2021/08/11 09:18:19;;;;;;;3.65;1.88;;;;;;;;;;4938232;29;20469;-86
2021/08/11 09:20:49;;;;;;;3.95;1.75;;;;;;;;;;4937008;29;20028;-85
2021/08/11 09:23:31;;;;;;;5.32;1.73;;;;;;;;;;4936961;29;20087;-88
2021/08/11 09:25:59;;;;;;;3.17;1.70;;;;;;;;;;4937137;29;20552;-87
2021/08/11 09:28:25;;;;;;;3.53;1.70;;;;;;;;;;4935873;29;20035;-88
2021/08/11 09:30:52;;;;;;;3.88;1.52;;;;;;;;;;4936676;29;20030;-88
2021/08/11 09:33:23;;;;;;;2.45;1.48;;;;;;;;;;4936723;29;20110;-87
2021/08/11 09:35:49;;;;;;;2.58;1.60;;;;;;;;;;4938038;29;20127;-90
2021/08/11 09:38:16;;;;;;;2.83;1.60;;;;;;;;;;4936697;29;20024;-89
2021/08/11 09:40:43;;;;;;;3.08;1.50;;;;;;;;;;4937940;29;20032;-86
2021/08/11 09:43:10;;;;;;;3.83;1.40;;;;;;;;;;4936637;29;20075;-90
2021/08/11 09:45:47;;;;;;;2.03;1.25;;;;;;;;;;4938333;29;20480;-85
2021/08/11 09:48:14;;;;;;;5.13;1.40;;;;;;;;;;4936580;29;20035;-88
2021/08/11 09:50:45;;;;;;;2.65;1.33;;;;;;;;;;4937633;29;20039;-86
2021/08/11 09:53:12;;;;;;;2.72;1.50;;;;;;;;;;4937534;29;20165;-86
2021/08/11 09:56:05;;;;;;;2.70;1.60;;;;;;;;;;4936277;29;20047;-86
2021/08/11 09:58:41;;;;;;;2.85;1.42;;;;;;;;;;4936268;29;20464;-88
2021/08/11 10:01:10;;;;;;;3.72;1.65;;;;;;;;;;4937974;29;20016;-86
2021/08/11 10:03:54;;;;;;;3.35;1.45;;;;;;;;;;4937477;29;20501;-86
2021/08/11 10:06:25;;;;;;;2.88;1.50;;;;;;;;;;4936291;29;20040;-86
2021/08/11 10:08:53;;;;;;;3.67;1.27;;;;;;;;;;4936173;29;20038;-86
2021/08/11 10:11:39;;;;;;;3.75;1.45;;;;;;;;;;4936138;29;20034;-87
2021/08/11 10:14:08;;;;;;;3.33;1.58;;;;;;;;;;4935885;29;20082;-90
2021/08/11 10:16:35;;;;;;;2.70;1.40;;;;;;;;;;4935908;29;20127;-90
2021/08/11 10:19:05;;;;;;;2.47;1.27;;;;;;;;;;4936143;29;20469;-86
2021/08/11 10:21:35;;;;;;;2.83;1.38;;;;;;;;;;4935794;29;20124;-85
2021/08/11 10:24:02;;;;;;;3.15;1.10;;;;;;;;;;4935783;29;20028;-85
2021/08/11 10:26:29;;;;;;;2.53;1.23;;;;;;;;;;4937037;29;20074;-85
2021/08/11 10:28:55;;;;;;;4.82;1.48;;;;;;;;;;4935704;29;20034;-86
2021/08/11 10:31:22;;;;;;;3.70;1.27;;;;;;;;;;4936987;29;20038;-87
2021/08/11 10:33:50;;;;;;;3.00;1.35;;;;;;;;;;4935669;29;20181;-87
2021/08/11 10:36:16;;;;;;;2.03;1.27;;;;;;;;;;4935518;29;20092;-87
2021/08/11 10:38:46;;;;;;;2.63;1.60;;;;;;;;;;4935396;29;20111;-86
2021/08/11 10:41:16;;;;;;;3.28;1.17;;;;;;;;;;4935542;29;20035;-85
2021/08/11 10:43:45;;;;;;;2.63;1.30;;;;;;;;;;4935642;29;20384;-86
2021/08/11 10:46:13;;;;;;;2.30;1.45;;;;;;;;;;4935556;29;20488;-88
2021/08/11 10:48:40;;;;;;;2.03;1.20;;;;;;;;;;4935385;29;20035;-88
2021/08/11 10:51:06;;;;;;;3.30;1.40;;;;;;;;;;4935139;29;20035;-90
2021/08/11 10:53:32;;;;;;;3.17;1.45;;;;;;;;;;4935414;29;20028;-86
2021/08/11 10:55:59;;;;;;;2.70;1.30;;;;;;;;;;4935186;29;20512;-87
2021/08/11 10:58:38;;;;;;;2.05;1.02;;;;;;;;;;4935312;29;20083;-86
2021/08/11 11:01:24;;;;;;;2.50;1.15;;;;;;;;;;4935501;29;20067;-87
2021/08/11 11:03:52;;;;;;;3.35;1.30;;;;;;;;;;4935172;29;20477;-86
2021/08/11 11:06:18;;;;;;;3.38;1.35;;;;;;;;;;4935285;29;20388;-85
2021/08/11 11:08:45;;;;;;;3.38;1.27;;;;;;;;;;4936459;29;20030;-86
2021/08/11 11:11:34;;;;;;;4.57;1.40;;;;;;;;;;4936967;29;20063;-87
2021/08/11 11:14:00;;;;;;;3.40;1.88;;;;;;;;;;4935459;29;20035;-87
2021/08/11 11:16:53;;;;;;;2.65;1.50;;;;;;;;;;4936828;29;20032;-86
2021/08/11 11:19:19;;;;;;;2.88;1.38;;;;;;;;;;4906753;29;20043;-87
2021/08/11 11:21:45;;;;;;;3.35;1.27;;;;;;;;;;4935255;29;20031;-85
2021/08/11 11:24:30;;;;;;;2.53;1.40;;;;;;;;;;4936503;29;20469;-86
2021/08/11 11:26:56;;;;;;;3.00;1.30;;;;;;;;;;4935125;29;20392;-86
2021/08/11 11:29:42;;;;;;;3.75;1.48;;;;;;;;;;4935645;29;20027;-86
2021/08/11 11:32:24;;;;;;;4.47;1.80;;;;;;;;;;4936943;29;20028;-89
2021/08/11 11:35:10;;;;;;;4.30;1.70;;;;;;;;;;4936288;29;20046;-85
2021/08/11 11:37:36;;;;;;;3.35;1.75;;;;;;;;;;4938245;29;20469;-86
2021/08/11 11:40:04;;;;;;;2.63;1.52;;;;;;;;;;4935801;29;20035;-88
2021/08/11 11:42:32;;;;;;;4.95;1.83;;;;;;;;;;4935670;29;20050;-87
2021/08/11 11:44:59;;;;;;;3.50;1.60;;;;;;;;;;4935270;29;20035;-88
2021/08/11 11:47:40;;;;;;;3.78;1.70;;;;;;;;;;4935522;29;20024;-86
2021/08/11 11:50:24;;;;;;;2.75;1.52;;;;;;;;;;4936154;29;20070;-86
2021/08/11 11:52:54;;;;;;;4.13;1.80;;;;;;;;;;4940462;29;20051;-87
2021/08/11 11:55:31;;;;;;;2.90;1.50;;;;;;;;;;4939065;29;20135;-87
2021/08/11 11:57:58;;;;;;;3.40;1.55;;;;;;;;;;4940235;29;20019;-87
2021/08/11 12:00:24;;;;;;;3.33;1.67;;;;;;;;;;4940288;29;20078;-86
2021/08/11 12:02:54;;;;;;;3.25;1.90;;;;;;;;;;4940243;29;20098;-86
2021/08/11 12:05:20;;;;;;;3.60;1.63;;;;;;;;;;4939132;29;20207;-88
2021/08/11 12:07:47;;;;;;;3.33;1.50;;;;;;;;;;4938786;29;20485;-88
2021/08/11 12:10:26;;;;;;;3.72;1.50;;;;;;;;;;4938990;29;20038;-86
2021/08/11 12:12:59;;;;;;;2.60;1.40;;;;;;;;;;4939157;29;20032;-87
2021/08/11 12:15:25;;;;;;;3.05;1.38;;;;;;;;;;4938445;29;20035;-87
2021/08/11 12:17:52;;;;;;;2.97;1.40;;;;;;;;;;4938785;29;20032;-87
2021/08/11 12:20:31;;;;;;;2.97;1.30;;;;;;;;;;4938589;29;20055;-91
2021/08/11 12:22:59;;;;;;;2.80;1.48;;;;;;;;;;4938501;29;20034;-90
2021/08/11 12:25:25;;;;;;;3.40;1.77;;;;;;;;;;4939494;29;20032;-88
2021/08/11 12:28:10;;;;;;;2.88;1.35;;;;;;;;;;4938335;29;20027;-90
2021/08/11 12:30:37;;;;;;;7.07;1.73;;;;;;;;;;4938306;29;20027;-91
2021/08/11 12:33:04;;;;;;;2.67;1.50;;;;;;;;;;4938479;29;20031;-90
2021/08/11 12:35:33;;;;;;;2.45;1.40;;;;;;;;;;4938235;29;20050;-90
2021/08/11 12:37:59;;;;;;;6.30;1.60;;;;;;;;;;4938231;29;20031;-91
2021/08/11 12:40:30;;;;;;;2.78;1.27;;;;;;;;;;4939385;29;20078;-90
2021/08/11 12:42:57;;;;;;;3.33;1.42;;;;;;;;;;4938124;29;20086;-89
2021/08/11 12:45:23;;;;;;;3.72;1.60;;;;;;;;;;4938067;29;20031;-90
2021/08/11 12:47:50;;;;;;;4.55;1.67;;;;;;;;;;4939180;29;20030;-90
2021/08/11 12:50:20;;;;;;;3.47;1.70;;;;;;;;;;4938149;29;20066;-90
2021/08/11 12:52:56;;;;;;;4.22;1.60;;;;;;;;;;4937815;29;20138;-90
2021/08/11 12:55:32;;;;;;;3.63;1.88;;;;;;;;;;4937659;29;20039;-91
2021/08/11 12:57:58;;;;;;;4.20;1.23;;;;;;;;;;4938677;29;20034;-91
2021/08/11 13:00:54;;;;;;;2.90;1.67;;;;;;;;;;4937823;29;20051;-91
2021/08/11 13:03:20;;;;;;;2.75;1.40;;;;;;;;;;4936185;29;20153;-90
2021/08/11 13:05:53;;;;;;;6.57;1.70;;;;;;;;;;4939019;29;20062;-91
2021/08/11 13:08:19;;;;;;;5.40;1.83;;;;;;;;;;4938812;29;20036;-91
2021/08/11 13:10:55;;;;;;;4.20;1.60;;;;;;;;;;4937435;29;20098;-90
2021/08/11 13:13:23;;;;;;;3.50;1.80;;;;;;;;;;4937595;29;20099;-89
2021/08/11 13:15:49;;;;;;;2.33;1.30;;;;;;;;;;4937335;29;20484;-86
2021/08/11 13:18:25;;;;;;;4.15;1.73;;;;;;;;;;4937459;29;20032;-87
2021/08/11 13:20:51;;;;;;;7.82;1.80;;;;;;;;;;4937512;29;20032;-91
2021/08/11 13:23:18;;;;;;;4.20;1.70;;;;;;;;;;4938641;29;20019;-91
2021/08/11 13:25:45;;;;;;;14.43;2.85;;;;;;;;;;4938908;29;20087;-89
2021/08/11 13:28:12;;;;;;;3.40;1.50;;;;;;;;;;4937335;29;20046;-88
2021/08/11 13:30:38;;;;;;;4.28;1.70;;;;;;;;;;4937092;29;20024;-87
2021/08/11 13:33:04;;;;;;;2.92;1.60;;;;;;;;;;4937783;29;20028;-87
2021/08/11 13:35:34;;;;;;;4.93;1.33;;;;;;;;;;4936985;29;20052;-86
2021/08/11 13:38:02;;;;;;;3.53;1.65;;;;;;;;;;4938103;29;20104;-86
2021/08/11 13:40:28;;;;;;;5.97;2.15;;;;;;;;;;4936981;29;20389;-86
2021/08/11 13:42:55;;;;;;;10.02;1.95;;;;;;;;;;4936824;29;20496;-87
2021/08/11 13:45:21;;;;;;;4.03;2.03;;;;;;;;;;4938302;29;20035;-89
2021/08/11 13:47:47;;;;;;;3.75;2.08;;;;;;;;;;4938513;29;20028;-90
2021/08/11 13:50:14;;;;;;;4.47;1.90;;;;;;;;;;4938105;29;20035;-89
2021/08/11 13:52:41;;;;;;;3.67;1.83;;;;;;;;;;4936627;29;20055;-88
2021/08/11 13:55:07;;;;;;;4.13;1.77;;;;;;;;;;4936375;29;20058;-87
2021/08/11 13:57:34;;;;;;;3.78;1.90;;;;;;;;;;4937084;29;20028;-87
2021/08/11 14:00:00;;;;;;;5.15;1.90;;;;;;;;;;4936997;29;20065;-87
2021/08/11 14:02:27;;;;;;;3.92;1.83;;;;;;;;;;4936625;29;20603;-85
2021/08/11 14:04:53;;;;;;;4.88;1.80;;;;;;;;;;4936186;29;20020;-87
2021/08/11 14:07:20;;;;;;;3.50;1.90;;;;;;;;;;4936177;29;20103;-85
2021/08/11 14:09:46;;;;;;;4.03;1.75;;;;;;;;;;4936182;29;20032;-85
2021/08/11 14:12:13;;;;;;;4.32;1.80;;;;;;;;;;4936091;29;20024;-87
2021/08/11 14:14:39;;;;;;;4.00;1.50;;;;;;;;;;4935729;29;20470;-87
2021/08/11 14:17:06;;;;;;;5.32;1.83;;;;;;;;;;4936057;29;20445;-87
2021/08/11 14:19:33;;;;;;;4.20;1.80;;;;;;;;;;4935889;29;20024;-87
2021/08/11 14:21:59;;;;;;;2.95;1.42;;;;;;;;;;4935897;29;20465;-87
2021/08/11 14:24:25;;;;;;;3.25;1.48;;;;;;;;;;4935795;29;20088;-86
2021/08/11 14:26:51;;;;;;;3.35;1.50;;;;;;;;;;4935768;29;20028;-88
2021/08/11 14:29:20;;;;;;;3.45;1.90;;;;;;;;;;4935749;29;20024;-88
2021/08/11 14:31:47;;;;;;;4.53;1.70;;;;;;;;;;4935782;29;20032;-85
2021/08/11 14:34:13;;;;;;;5.18;1.73;;;;;;;;;;4935742;29;20024;-87
2021/08/11 14:36:39;;;;;;;3.20;1.73;;;;;;;;;;4936137;29;20126;-88
2021/08/11 14:39:06;;;;;;;2.67;1.48;;;;;;;;;;4935893;29;20027;-86
2021/08/11 14:41:32;;;;;;;8.23;2.00;;;;;;;;;;4935611;29;20120;-87
2021/08/11 14:43:58;;;;;;;4.95;2.10;;;;;;;;;;4935504;29;20056;-87
2021/08/11 14:46:25;;;;;;;6.82;1.90;;;;;;;;;;4935982;29;20055;-87
2021/08/11 14:48:51;;;;;;;5.32;2.10;;;;;;;;;;4936641;29;20035;-85